Time,TemperatureF,DewpointF,PressureIn,WindDirection,WindDirectionDegrees,WindSpeedMPH,WindSpeedGustMPH,Humidity,HourlyPrecipIn,Conditions,Clouds,dailyrainin,SoftwareType,DateUTC
2013-02-06 00:00:00,31.3,28.1,29.73,North,0,0.0,0.0,88,0.00,CLR,CLR,0.02,WeatherDisplay:10.37,2013-02-06 05:00:00,
2013-02-06 00:06:00,31.1,28.0,29.73,North,0,0.0,0.0,88,0.00,CLR,CLR,0.00,WeatherDisplay:10.37,2013-02-06 05:06:00,
2013-02-06 00:11:00,30.9,27.8,29.73,North,0,0.0,0.0,88,0.00,CLR,CLR,0.00,WeatherDisplay:10.37,2013-02-06 05:11:00,
2013-02-06 00:16:00,30.7,27.6,29.74,North,0,0.0,0.0,88,0.00,CLR,CLR,0.00,WeatherDisplay:10.37,2013-02-06 05:16:00,
2013-02-06 00:21:00,30.6,27.4,29.74,North,0,0.0,0.0,88,0.00,CLR,CLR,0.00,WeatherDisplay:10.37,2013-02-06 05:21:00,
2013-02-06 00:26:00,30.6,27.4,29.74,North,0,0.0,0.0,88,0.00,CLR,CLR,0.00,WeatherDisplay:10.37,2013-02-06 05:26:00,
2013-02-06 00:31:00,30.6,27.4,29.74,North,0,0.0,0.0,88,0.00,CLR,CLR,0.00,WeatherDisplay:10.37,2013-02-06 05:31:00,
2013-02-06 00:37:00,30.6,27.4,29.74,North,0,0.0,0.0,88,0.00,CLR,CLR,0.00,WeatherDisplay:10.37,2013-02-06 05:37:00,
2013-02-06 00:42:00,30.7,27.6,29.74,North,0,0.0,0.0,88,0.00,CLR,CLR,0.00,WeatherDisplay:10.37,2013-02-06 05:42:00,
2013-02-06 00:47:00,30.7,27.6,29.74,ENE,68,0.0,0.0,88,0.00,CLR,CLR,0.00,WeatherDisplay:10.37,2013-02-06 05:47:00,
2013-02-06 00:52:00,30.7,27.6,29.73,WNW,292,0.0,0.0,88,0.00,CLR,CLR,0.00,WeatherDisplay:10.37,2013-02-06 05:52:00,
2013-02-06 00:57:00,30.7,27.6,29.74,WNW,292,0.0,0.0,88,0.00,CLR,CLR,0.00,WeatherDisplay:10.37,2013-02-06 05:57:00,
2013-02-06 01:03:00,30.7,27.6,29.74,WNW,292,0.0,0.0,88,0.00,CLR,CLR,0.00,WeatherDisplay:10.37,2013-02-06 06:03:00,
2013-02-06 01:08:00,30.7,27.6,29.74,WNW,292,0.0,0.0,88,0.00,CLR,CLR,0.00,WeatherDisplay:10.37,2013-02-06 06:08:00,
2013-02-06 01:13:00,30.7,27.6,29.73,WNW,292,0.0,0.0,88,0.00,CLR,CLR,0.00,WeatherDisplay:10.37,2013-02-06 06:13:00,
2013-02-06 01:18:00,30.7,27.6,29.73,WNW,292,0.0,0.0,88,0.00,CLR,CLR,0.00,WeatherDisplay:10.37,2013-02-06 06:18:00,
2013-02-06 01:23:00,30.9,27.8,29.73,WNW,292,0.0,0.0,88,0.00,CLR,CLR,0.00,WeatherDisplay:10.37,2013-02-06 06:23:00,
2013-02-06 01:29:00,30.9,27.8,29.73,WNW,292,0.0,0.0,88,0.00,CLR,CLR,0.00,WeatherDisplay:10.37,2013-02-06 06:29:00,
2013-02-06 01:34:00,30.9,27.8,29.73,WNW,292,0.0,0.0,88,0.00,CLR,CLR,0.00,WeatherDisplay:10.37,2013-02-06 06:34:00,
2013-02-06 01:39:00,30.9,27.8,29.74,WNW,292,0.0,0.0,88,0.00,CLR,CLR,0.00,WeatherDisplay:10.37,2013-02-06 06:39:00,
2013-02-06 01:44:00,31.1,28.0,29.74,SE,135,0.0,0.0,88,0.00,CLR,CLR,0.00,WeatherDisplay:10.37,2013-02-06 06:44:00,
2013-02-06 01:49:00,31.3,28.1,29.74,SE,135,0.0,0.0,88,0.00,CLR,CLR,0.00,WeatherDisplay:10.37,2013-02-06 06:49:00,
2013-02-06 01:55:00,31.6,28.5,29.74,SE,135,0.0,0.0,88,0.00,CLR,CLR,0.00,WeatherDisplay:10.37,2013-02-06 06:55:00,
2013-02-06 02:00:00,31.6,28.5,29.74,SE,135,0.0,0.0,88,0.00,CLR,CLR,0.00,WeatherDisplay:10.37,2013-02-06 07:00:00,
2013-02-06 02:05:00,31.8,28.7,29.74,SE,135,0.0,0.0,88,0.00,CLR,CLR,0.00,WeatherDisplay:10.37,2013-02-06 07:05:00,
2013-02-06 02:10:00,31.8,28.7,29.74,SE,135,0.0,0.0,88,0.00,CLR,CLR,0.00,WeatherDisplay:10.37,2013-02-06 07:10:00,
2013-02-06 02:15:00,31.8,28.7,29.75,SE,135,0.0,0.0,88,0.00,CLR,CLR,0.00,WeatherDisplay:10.37,2013-02-06 07:15:00,
2013-02-06 02:21:00,31.8,28.7,29.75,SE,135,0.0,0.0,88,0.00,CLR,CLR,0.00,WeatherDisplay:10.37,2013-02-06 07:21:00,
2013-02-06 02:26:00,31.8,28.7,29.75,SE,135,0.0,0.0,88,0.00,CLR,CLR,0.00,WeatherDisplay:10.37,2013-02-06 07:26:00,
2013-02-06 02:31:00,31.8,28.7,29.75,SE,135,0.0,0.0,88,0.00,CLR,CLR,0.00,WeatherDisplay:10.37,2013-02-06 07:31:00,
2013-02-06 02:36:00,31.8,28.7,29.75,SE,135,0.0,0.0,88,0.00,CLR,CLR,0.00,WeatherDisplay:10.37,2013-02-06 07:36:00,
2013-02-06 02:41:00,31.8,28.7,29.75,SE,135,0.0,0.0,88,0.00,CLR,CLR,0.00,WeatherDisplay:10.37,2013-02-06 07:41:00,
2013-02-06 02:47:00,32.0,28.8,29.75,SE,135,0.0,0.0,88,0.00,CLR,CLR,0.00,WeatherDisplay:10.37,2013-02-06 07:47:00,
2013-02-06 02:52:00,31.8,28.7,29.75,West,270,0.0,0.0,88,0.00,CLR,CLR,0.00,WeatherDisplay:10.37,2013-02-06 07:52:00,
2013-02-06 02:57:00,31.8,28.7,29.75,West,270,0.0,0.0,88,0.00,CLR,CLR,0.00,WeatherDisplay:10.37,2013-02-06 07:57:00,
2013-02-06 03:02:00,31.8,28.7,29.75,West,270,0.0,0.0,88,0.00,CLR,CLR,0.00,WeatherDisplay:10.37,2013-02-06 08:02:00,
2013-02-06 03:07:00,31.8,28.7,29.75,West,270,0.0,0.0,88,0.00,CLR,CLR,0.00,WeatherDisplay:10.37,2013-02-06 08:07:00,
2013-02-06 03:13:00,31.8,28.7,29.75,West,270,0.0,0.0,88,0.00,CLR,CLR,0.00,WeatherDisplay:10.37,2013-02-06 08:13:00,
2013-02-06 03:18:00,31.8,28.7,29.76,North,0,0.0,0.0,88,0.00,CLR,CLR,0.00,WeatherDisplay:10.37,2013-02-06 08:18:00,
2013-02-06 03:23:00,31.8,28.7,29.76,WNW,292,0.0,0.0,88,0.00,CLR,CLR,0.00,WeatherDisplay:10.37,2013-02-06 08:23:00,
2013-02-06 03:28:00,31.8,28.7,29.77,WNW,292,0.0,0.0,88,0.00,CLR,CLR,0.00,WeatherDisplay:10.37,2013-02-06 08:28:00,
2013-02-06 03:33:00,31.8,28.7,29.77,NNE,22,0.0,0.0,88,0.00,CLR,CLR,0.00,WeatherDisplay:10.37,2013-02-06 08:33:00,
2013-02-06 03:38:00,31.8,28.7,29.77,NNE,22,0.0,0.0,88,0.00,CLR,CLR,0.00,WeatherDisplay:10.37,2013-02-06 08:38:00,
2013-02-06 03:44:00,31.8,28.7,29.77,NE,45,0.0,0.0,88,0.00,CLR,CLR,0.00,WeatherDisplay:10.37,2013-02-06 08:44:00,
2013-02-06 03:49:00,32.2,29.3,29.77,East,90,0.0,0.0,89,0.00,CLR,CLR,0.00,WeatherDisplay:10.37,2013-02-06 08:49:00,
2013-02-06 03:54:00,32.2,29.3,29.77,East,90,0.0,0.0,89,0.00,CLR,CLR,0.00,WeatherDisplay:10.37,2013-02-06 08:54:00,
2013-02-06 03:59:00,32.2,29.3,29.77,East,90,0.0,0.0,89,0.00,CLR,CLR,0.00,WeatherDisplay:10.37,2013-02-06 08:59:00,
2013-02-06 04:04:00,32.4,29.5,29.78,East,90,0.0,0.0,89,0.00,CLR,CLR,0.00,WeatherDisplay:10.37,2013-02-06 09:04:00,
2013-02-06 04:10:00,32.4,29.5,29.78,North,0,0.0,0.0,89,0.00,CLR,CLR,0.00,WeatherDisplay:10.37,2013-02-06 09:10:00,
2013-02-06 04:15:00,32.4,29.5,29.78,North,0,0.0,0.0,89,0.00,CLR,CLR,0.00,WeatherDisplay:10.37,2013-02-06 09:15:00,
2013-02-06 04:20:00,32.5,29.7,29.78,North,0,0.0,0.0,89,0.00,CLR,CLR,0.00,WeatherDisplay:10.37,2013-02-06 09:20:00,
2013-02-06 04:25:00,32.5,29.7,29.79,North,0,0.0,0.0,89,0.00,CLR,CLR,0.00,WeatherDisplay:10.37,2013-02-06 09:25:00,
2013-02-06 04:30:00,32.7,29.8,29.80,North,0,0.0,0.0,89,0.00,CLR,CLR,0.00,WeatherDisplay:10.37,2013-02-06 09:30:00,
2013-02-06 04:35:00,32.7,29.8,29.80,North,0,0.0,0.0,89,0.00,CLR,CLR,0.00,WeatherDisplay:10.37,2013-02-06 09:35:00,
2013-02-06 04:40:00,32.7,29.8,29.80,North,0,0.0,0.0,89,0.00,CLR,CLR,0.00,WeatherDisplay:10.37,2013-02-06 09:40:00,
2013-02-06 04:46:00,32.7,29.8,29.80,NNW,338,0.0,0.0,89,0.00,CLR,CLR,0.00,WeatherDisplay:10.37,2013-02-06 09:46:00,
2013-02-06 04:51:00,32.7,29.8,29.81,North,0,0.0,0.0,89,0.00,CLR,CLR,0.00,WeatherDisplay:10.37,2013-02-06 09:51:00,
2013-02-06 04:56:00,32.9,30.0,29.81,NNW,338,5.8,5.8,89,0.00,CLR,CLR,0.00,WeatherDisplay:10.37,2013-02-06 09:56:00,
2013-02-06 05:01:00,33.1,30.2,29.82,North,0,0.0,0.0,89,0.00,CLR,CLR,0.00,WeatherDisplay:10.37,2013-02-06 10:01:00,
2013-02-06 05:07:00,33.6,30.7,29.82,NNW,338,0.0,0.0,89,0.00,CLR,CLR,0.00,WeatherDisplay:10.37,2013-02-06 10:07:00,
2013-02-06 05:12:00,33.6,30.7,29.82,North,0,2.5,2.5,89,0.00,CLR,CLR,0.00,WeatherDisplay:10.37,2013-02-06 10:12:00,
2013-02-06 05:17:00,34.0,31.1,29.82,NNE,22,0.0,0.0,89,0.00,CLR,CLR,0.00,WeatherDisplay:10.37,2013-02-06 10:17:00,
2013-02-06 05:22:00,34.0,30.8,29.83,North,0,0.0,0.0,88,0.00,CLR,CLR,0.00,WeatherDisplay:10.37,2013-02-06 10:22:00,
2013-02-06 05:27:00,34.2,31.0,29.83,North,0,0.0,0.0,88,0.00,CLR,CLR,0.00,WeatherDisplay:10.37,2013-02-06 10:27:00,
2013-02-06 05:32:00,34.2,31.0,29.83,North,0,0.0,0.0,88,0.00,CLR,CLR,0.00,WeatherDisplay:10.37,2013-02-06 10:32:00,
2013-02-06 05:38:00,34.3,31.2,29.83,NNW,338,0.0,0.0,88,0.00,CLR,CLR,0.00,WeatherDisplay:10.37,2013-02-06 10:38:00,
2013-02-06 05:43:00,34.3,31.2,29.83,NNW,338,0.0,0.0,88,0.00,CLR,CLR,0.00,WeatherDisplay:10.37,2013-02-06 10:43:00,
2013-02-06 05:48:00,34.3,31.2,29.83,NW,315,0.0,0.0,88,0.00,CLR,CLR,0.00,WeatherDisplay:10.37,2013-02-06 10:48:00,
2013-02-06 05:53:00,34.3,31.2,29.83,NW,315,0.0,0.0,88,0.00,CLR,CLR,0.00,WeatherDisplay:10.37,2013-02-06 10:53:00,
2013-02-06 05:58:00,34.3,31.2,29.84,NW,315,0.0,0.0,88,0.00,CLR,CLR,0.00,WeatherDisplay:10.37,2013-02-06 10:58:00,
2013-02-06 06:04:00,34.5,31.3,29.85,NW,315,0.0,0.0,88,0.00,CLR,CLR,0.00,WeatherDisplay:10.37,2013-02-06 11:04:00,
2013-02-06 06:09:00,34.7,31.5,29.85,NW,315,0.0,0.0,88,0.00,CLR,CLR,0.00,WeatherDisplay:10.37,2013-02-06 11:09:00,
2013-02-06 06:14:00,34.5,31.3,29.86,NW,315,0.0,0.0,88,0.00,CLR,CLR,0.00,WeatherDisplay:10.37,2013-02-06 11:14:00,
2013-02-06 06:19:00,34.5,31.3,29.86,NW,315,0.0,0.0,88,0.00,CLR,CLR,0.00,WeatherDisplay:10.37,2013-02-06 11:19:00,
2013-02-06 06:24:00,34.5,31.0,29.86,NW,315,0.0,0.0,87,0.00,CLR,CLR,0.00,WeatherDisplay:10.37,2013-02-06 11:24:00,
2013-02-06 06:30:00,34.3,30.9,29.87,NW,315,0.0,0.0,87,0.00,CLR,CLR,0.00,WeatherDisplay:10.37,2013-02-06 11:30:00,
2013-02-06 06:35:00,34.3,30.9,29.88,NW,315,3.5,3.5,87,0.00,CLR,CLR,0.00,WeatherDisplay:10.37,2013-02-06 11:35:00,
2013-02-06 06:40:00,34.5,31.0,29.88,NW,315,0.0,0.0,87,0.00,CLR,CLR,0.00,WeatherDisplay:10.37,2013-02-06 11:40:00,
2013-02-06 06:45:00,34.7,31.2,29.88,West,270,0.0,0.0,87,0.00,CLR,CLR,0.00,WeatherDisplay:10.37,2013-02-06 11:45:00,
2013-02-06 06:50:00,34.9,31.1,29.88,SSW,202,0.0,0.0,86,0.00,CLR,CLR,0.00,WeatherDisplay:10.37,2013-02-06 11:50:00,
2013-02-06 06:56:00,34.9,31.1,29.88,WNW,292,1.3,1.3,86,0.00,CLR,CLR,0.00,WeatherDisplay:10.37,2013-02-06 11:56:00,
2013-02-06 07:01:00,34.9,31.1,29.88,West,270,0.9,0.9,86,0.00,CLR,CLR,0.00,WeatherDisplay:10.37,2013-02-06 12:01:00,
2013-02-06 07:06:00,35.2,31.2,29.88,WSW,248,5.8,0.0,85,0.00,CLR,CLR,0.00,WeatherDisplay:10.37,2013-02-06 12:06:00,
2013-02-06 07:11:00,35.4,31.1,29.88,West,270,3.6,3.6,84,0.00,CLR,CLR,0.00,WeatherDisplay:10.37,2013-02-06 12:11:00,
2013-02-06 07:16:00,35.4,30.8,29.89,WSW,248,0.0,0.0,83,0.00,CLR,CLR,0.00,WeatherDisplay:10.37,2013-02-06 12:16:00,
2013-02-06 07:21:00,35.8,31.1,29.89,SSW,202,0.0,0.0,83,0.00,CLR,CLR,0.00,WeatherDisplay:10.37,2013-02-06 12:21:00,
2013-02-06 07:26:00,35.8,30.8,29.90,SSW,202,4.9,4.9,82,0.00,CLR,CLR,0.00,WeatherDisplay:10.37,2013-02-06 12:26:00,
2013-02-06 07:32:00,35.8,30.8,29.90,SSW,202,3.8,3.8,82,0.00,CLR,CLR,0.00,WeatherDisplay:10.37,2013-02-06 12:32:00,
2013-02-06 07:37:00,35.8,30.5,29.92,WSW,248,0.0,0.0,81,0.00,CLR,CLR,0.00,WeatherDisplay:10.37,2013-02-06 12:37:00,
2013-02-06 07:42:00,35.8,30.5,29.92,SSW,202,0.0,0.0,81,0.00,CLR,CLR,0.00,WeatherDisplay:10.37,2013-02-06 12:42:00,
2013-02-06 07:47:00,35.8,30.2,29.93,WNW,292,0.0,0.0,80,0.00,CLR,CLR,0.00,WeatherDisplay:10.37,2013-02-06 12:47:00,
2013-02-06 07:52:00,35.8,30.2,29.93,West,270,5.8,5.8,80,0.00,CLR,CLR,0.00,WeatherDisplay:10.37,2013-02-06 12:52:00,
2013-02-06 07:58:00,35.8,29.9,29.93,SW,225,3.5,3.5,79,0.00,CLR,CLR,0.00,WeatherDisplay:10.37,2013-02-06 12:58:00,
2013-02-06 08:03:00,35.8,29.6,29.94,West,270,4.6,4.6,78,0.00,CLR,CLR,0.00,WeatherDisplay:10.37,2013-02-06 13:03:00,
2013-02-06 08:08:00,36.0,29.4,29.94,WNW,292,1.3,0.0,77,0.00,CLR,CLR,0.00,WeatherDisplay:10.37,2013-02-06 13:08:00,
2013-02-06 08:13:00,36.0,29.1,29.94,WSW,248,0.0,0.0,76,0.00,CLR,CLR,0.00,WeatherDisplay:10.37,2013-02-06 13:13:00,
2013-02-06 08:18:00,36.0,29.1,29.94,WNW,292,3.5,3.5,76,0.00,CLR,CLR,0.00,WeatherDisplay:10.37,2013-02-06 13:18:00,
2013-02-06 08:24:00,36.0,29.1,29.94,West,270,9.2,9.2,76,0.00,CLR,CLR,0.00,WeatherDisplay:10.37,2013-02-06 13:24:00,
2013-02-06 08:29:00,36.0,28.8,29.94,WSW,248,8.1,8.1,75,0.00,CLR,CLR,0.00,WeatherDisplay:10.37,2013-02-06 13:29:00,
2013-02-06 08:34:00,36.0,28.5,29.94,SW,225,4.7,4.7,74,0.00,CLR,CLR,0.00,WeatherDisplay:10.37,2013-02-06 13:34:00,
2013-02-06 08:39:00,36.0,28.5,29.94,SSE,158,4.6,4.6,74,0.00,CLR,CLR,0.00,WeatherDisplay:10.37,2013-02-06 13:39:00,
2013-02-06 08:44:00,36.1,28.6,29.94,SW,225,6.9,6.9,74,0.00,CLR,CLR,0.00,WeatherDisplay:10.37,2013-02-06 13:44:00,
2013-02-06 08:50:00,36.0,28.5,29.95,SW,225,2.3,2.3,74,0.00,CLR,CLR,0.00,WeatherDisplay:10.37,2013-02-06 13:50:00,
2013-02-06 08:55:00,36.0,28.5,29.95,SW,225,6.9,6.9,74,0.00,CLR,CLR,0.00,WeatherDisplay:10.37,2013-02-06 13:55:00,
2013-02-06 09:00:00,36.0,28.5,29.95,SSW,202,2.3,2.3,74,0.00,CLR,CLR,0.00,WeatherDisplay:10.37,2013-02-06 14:00:00,
2013-02-06 09:05:00,36.1,28.6,29.95,WSW,248,3.8,3.8,74,0.00,CLR,CLR,0.00,WeatherDisplay:10.37,2013-02-06 14:05:00,
2013-02-06 09:10:00,36.1,28.6,29.95,SW,225,5.8,5.8,74,0.00,CLR,CLR,0.00,WeatherDisplay:10.37,2013-02-06 14:10:00,
2013-02-06 09:15:00,36.1,28.6,29.95,SW,225,0.0,0.0,74,0.00,CLR,CLR,0.00,WeatherDisplay:10.37,2013-02-06 14:15:00,
2013-02-06 09:21:00,36.3,28.8,29.95,South,180,9.2,9.2,74,0.00,CLR,CLR,0.00,WeatherDisplay:10.37,2013-02-06 14:21:00,
2013-02-06 09:26:00,36.5,29.0,29.95,SW,225,9.2,9.2,74,0.00,CLR,CLR,0.00,WeatherDisplay:10.37,2013-02-06 14:26:00,
2013-02-06 09:31:00,36.9,29.0,29.96,SSW,202,1.8,1.8,73,0.00,CLR,CLR,0.00,WeatherDisplay:10.37,2013-02-06 14:31:00,
2013-02-06 09:36:00,37.0,29.2,29.96,WSW,248,2.2,0.0,73,0.00,CLR,CLR,0.00,WeatherDisplay:10.37,2013-02-06 14:36:00,
2013-02-06 09:41:00,37.2,29.4,29.96,SW,225,3.5,3.5,73,0.00,CLR,CLR,0.00,WeatherDisplay:10.37,2013-02-06 14:41:00,
2013-02-06 09:46:00,37.4,29.5,29.96,SW,225,4.6,4.6,73,0.00,CLR,CLR,0.00,WeatherDisplay:10.37,2013-02-06 14:46:00,
2013-02-06 09:52:00,37.6,29.7,29.97,SW,225,3.5,3.5,73,0.00,CLR,CLR,0.00,WeatherDisplay:10.37,2013-02-06 14:52:00,
2013-02-06 09:57:00,37.8,29.5,29.98,South,180,0.0,0.0,72,0.00,CLR,CLR,0.00,WeatherDisplay:10.37,2013-02-06 14:57:00,
2013-02-06 10:02:00,37.9,29.7,29.98,SSW,202,11.5,11.5,72,0.00,CLR,CLR,0.00,WeatherDisplay:10.37,2013-02-06 15:02:00,
2013-02-06 10:07:00,37.9,29.4,29.98,SSW,202,5.8,5.8,71,0.00,CLR,CLR,0.00,WeatherDisplay:10.37,2013-02-06 15:07:00,
2013-02-06 10:12:00,38.1,29.5,29.98,SW,225,0.0,0.1,71,0.00,CLR,CLR,0.00,WeatherDisplay:10.37,2013-02-06 15:12:00,
2013-02-06 10:17:00,38.1,29.5,29.98,SSW,202,1.2,0.0,71,0.00,CLR,CLR,0.00,WeatherDisplay:10.37,2013-02-06 15:17:00,
2013-02-06 10:23:00,38.1,29.5,29.98,SE,135,0.0,0.0,71,0.00,CLR,CLR,0.00,WeatherDisplay:10.37,2013-02-06 15:23:00,
2013-02-06 10:28:00,38.3,29.7,29.98,West,270,0.0,0.0,71,0.00,CLR,CLR,0.00,WeatherDisplay:10.37,2013-02-06 15:28:00,
2013-02-06 10:33:00,38.3,29.7,29.99,WSW,248,2.3,2.3,71,0.00,CLR,CLR,0.00,WeatherDisplay:10.37,2013-02-06 15:33:00,
2013-02-06 10:38:00,38.3,29.7,29.99,WSW,248,2.7,2.7,71,0.00,CLR,CLR,0.00,WeatherDisplay:10.37,2013-02-06 15:38:00,
2013-02-06 10:44:00,38.5,29.5,29.99,West,270,3.5,0.0,70,0.00,CLR,CLR,0.00,WeatherDisplay:10.37,2013-02-06 15:44:00,
2013-02-06 10:49:00,38.5,29.5,29.99,SSW,202,6.3,6.3,70,0.00,CLR,CLR,0.00,WeatherDisplay:10.37,2013-02-06 15:49:00,
2013-02-06 10:54:00,38.5,29.2,29.99,West,270,2.2,2.2,69,0.00,CLR,CLR,0.00,WeatherDisplay:10.37,2013-02-06 15:54:00,
2013-02-06 11:00:00,38.5,29.5,30.00,SSW,202,3.5,3.5,70,0.00,CLR,CLR,0.00,WeatherDisplay:10.37,2013-02-06 16:00:00,
2013-02-06 11:05:00,38.8,29.9,30.00,WSW,248,6.0,6.0,70,0.00,CLR,CLR,0.00,WeatherDisplay:10.37,2013-02-06 16:05:00,
2013-02-06 11:10:00,38.7,29.4,30.00,WSW,248,2.3,0.0,69,0.00,CLR,CLR,0.00,WeatherDisplay:10.37,2013-02-06 16:10:00,
2013-02-06 11:15:00,38.5,29.2,30.01,WSW,248,3.5,3.5,69,0.00,CLR,CLR,0.00,WeatherDisplay:10.37,2013-02-06 16:15:00,
2013-02-06 11:20:00,38.5,29.2,30.01,West,270,2.3,0.0,69,0.00,CLR,CLR,0.00,WeatherDisplay:10.37,2013-02-06 16:20:00,
2013-02-06 11:26:00,38.5,29.2,30.00,SSW,202,2.3,0.0,69,0.00,CLR,CLR,0.00,WeatherDisplay:10.37,2013-02-06 16:26:00,
2013-02-06 11:31:00,38.5,29.2,30.00,WSW,248,0.0,0.0,69,0.00,CLR,CLR,0.00,WeatherDisplay:10.37,2013-02-06 16:31:00,
2013-02-06 11:36:00,38.5,29.2,30.01,SSW,202,5.6,5.6,69,0.00,CLR,CLR,0.00,WeatherDisplay:10.37,2013-02-06 16:36:00,
2013-02-06 11:41:00,38.7,29.4,30.01,SW,225,4.6,4.6,69,0.00,CLR,CLR,0.00,WeatherDisplay:10.37,2013-02-06 16:41:00,
2013-02-06 11:46:00,38.8,29.5,30.01,SSW,202,0.0,1.0,69,0.00,CLR,CLR,0.00,WeatherDisplay:10.37,2013-02-06 16:46:00,
2013-02-06 11:52:00,38.7,29.0,30.01,WNW,292,2.3,0.0,68,0.00,CLR,CLR,0.00,WeatherDisplay:10.37,2013-02-06 16:52:00,
2013-02-06 11:57:00,38.5,28.8,30.01,SW,225,6.3,6.3,68,0.00,CLR,CLR,0.00,WeatherDisplay:10.37,2013-02-06 16:57:00,
2013-02-06 12:02:00,38.5,28.5,30.01,WNW,292,8.1,8.1,67,0.00,CLR,CLR,0.00,WeatherDisplay:10.37,2013-02-06 17:02:00,
2013-02-06 12:07:00,38.3,27.9,30.01,SW,225,8.1,8.1,66,0.00,CLR,CLR,0.00,WeatherDisplay:10.37,2013-02-06 17:07:00,
2013-02-06 12:13:00,38.3,27.9,30.02,South,180,6.9,6.9,66,0.00,CLR,CLR,0.00,WeatherDisplay:10.37,2013-02-06 17:13:00,
2013-02-06 12:18:00,38.5,28.1,30.01,South,180,9.2,9.2,66,0.00,CLR,CLR,0.00,WeatherDisplay:10.37,2013-02-06 17:18:00,
2013-02-06 12:23:00,38.5,28.1,30.01,SW,225,3.5,3.5,66,0.00,CLR,CLR,0.00,WeatherDisplay:10.37,2013-02-06 17:23:00,
2013-02-06 12:28:00,38.5,28.1,30.02,SSE,158,7.6,7.6,66,0.00,CLR,CLR,0.00,WeatherDisplay:10.37,2013-02-06 17:28:00,
2013-02-06 12:33:00,38.8,28.1,30.02,WSW,248,5.8,5.8,65,0.00,CLR,CLR,0.00,WeatherDisplay:10.37,2013-02-06 17:33:00,
2013-02-06 12:39:00,38.8,27.7,30.02,East,90,6.3,6.3,64,0.00,CLR,CLR,0.00,WeatherDisplay:10.37,2013-02-06 17:39:00,
2013-02-06 12:44:00,38.8,27.7,30.02,South,180,9.2,9.2,64,0.00,CLR,CLR,0.00,WeatherDisplay:10.37,2013-02-06 17:44:00,
2013-02-06 12:49:00,39.0,27.9,30.02,West,270,2.3,0.0,64,0.00,CLR,CLR,0.00,WeatherDisplay:10.37,2013-02-06 17:49:00,
2013-02-06 12:54:00,38.8,27.3,30.02,NW,315,6.9,6.9,63,0.00,CLR,CLR,0.00,WeatherDisplay:10.37,2013-02-06 17:54:00,
2013-02-06 12:59:00,38.8,27.3,30.02,WSW,248,6.9,6.9,63,0.00,CLR,CLR,0.00,WeatherDisplay:10.37,2013-02-06 17:59:00,
2013-02-06 13:05:00,38.8,27.3,30.02,NW,315,4.6,4.6,63,0.00,CLR,CLR,0.00,WeatherDisplay:10.37,2013-02-06 18:05:00,
2013-02-06 13:10:00,38.8,26.9,30.02,SW,225,1.2,0.0,62,0.00,CLR,CLR,0.00,WeatherDisplay:10.37,2013-02-06 18:10:00,
2013-02-06 13:15:00,38.8,27.3,30.02,NW,315,6.0,6.0,63,0.00,CLR,CLR,0.00,WeatherDisplay:10.37,2013-02-06 18:15:00,
2013-02-06 13:20:00,38.8,27.3,30.02,West,270,5.6,5.6,63,0.00,CLR,CLR,0.00,WeatherDisplay:10.37,2013-02-06 18:20:00,
2013-02-06 13:25:00,38.8,27.3,30.02,WNW,292,4.6,4.6,63,0.00,CLR,CLR,0.00,WeatherDisplay:10.37,2013-02-06 18:25:00,
2013-02-06 13:31:00,39.0,27.1,30.02,WSW,248,4.6,4.6,62,0.00,CLR,CLR,0.00,WeatherDisplay:10.37,2013-02-06 18:31:00,
2013-02-06 13:36:00,39.0,27.5,30.02,SSW,202,8.1,8.1,63,0.00,CLR,CLR,0.00,WeatherDisplay:10.37,2013-02-06 18:36:00,
2013-02-06 13:41:00,39.0,27.5,30.02,West,270,2.5,2.5,63,0.00,CLR,CLR,0.00,WeatherDisplay:10.37,2013-02-06 18:41:00,
2013-02-06 13:46:00,39.2,27.7,30.02,West,270,8.7,8.7,63,0.00,CLR,CLR,0.00,WeatherDisplay:10.37,2013-02-06 18:46:00,
2013-02-06 13:51:00,39.4,27.8,30.02,WSW,248,5.8,5.8,63,0.00,CLR,CLR,0.00,WeatherDisplay:10.37,2013-02-06 18:51:00,
2013-02-06 13:57:00,39.4,27.8,30.02,WSW,248,4.6,4.6,63,0.00,CLR,CLR,0.00,WeatherDisplay:10.37,2013-02-06 18:57:00,
2013-02-06 14:02:00,39.4,27.8,30.02,WSW,248,2.3,2.3,63,0.00,CLR,CLR,0.00,WeatherDisplay:10.37,2013-02-06 19:02:00,
2013-02-06 14:07:00,39.6,28.4,30.01,WSW,248,3.5,0.0,64,0.00,CLR,CLR,0.00,WeatherDisplay:10.37,2013-02-06 19:07:00,
2013-02-06 14:13:00,39.7,28.5,30.01,SSW,202,7.4,7.4,64,0.00,CLR,CLR,0.00,WeatherDisplay:10.37,2013-02-06 19:13:00,
2013-02-06 14:18:00,39.9,28.7,30.02,SSW,202,4.6,4.6,64,0.00,CLR,CLR,0.00,WeatherDisplay:10.37,2013-02-06 19:18:00,
2013-02-06 14:23:00,40.1,28.5,30.02,WSW,248,2.7,2.7,63,0.00,CLR,CLR,0.00,WeatherDisplay:10.37,2013-02-06 19:23:00,
2013-02-06 14:28:00,40.1,28.5,30.03,WSW,248,2.3,2.3,63,0.00,CLR,CLR,0.00,WeatherDisplay:10.37,2013-02-06 19:28:00,
2013-02-06 14:33:00,40.1,28.1,30.03,SW,225,0.0,0.0,62,0.00,CLR,CLR,0.00,WeatherDisplay:10.37,2013-02-06 19:33:00,
2013-02-06 14:39:00,39.9,28.3,30.03,WSW,248,4.6,4.6,63,0.00,CLR,CLR,0.00,WeatherDisplay:10.37,2013-02-06 19:39:00,
2013-02-06 14:44:00,39.9,27.9,30.03,West,270,8.1,8.1,62,0.00,CLR,CLR,0.00,WeatherDisplay:10.37,2013-02-06 19:44:00,
2013-02-06 14:49:00,39.9,27.9,30.03,SSW,202,5.8,5.8,62,0.00,CLR,CLR,0.00,WeatherDisplay:10.37,2013-02-06 19:49:00,
2013-02-06 14:54:00,39.9,27.9,30.03,NE,45,5.8,5.8,62,0.00,CLR,CLR,0.00,WeatherDisplay:10.37,2013-02-06 19:54:00,
2013-02-06 14:59:00,39.9,27.9,30.03,WSW,248,9.2,9.2,62,0.00,CLR,CLR,0.00,WeatherDisplay:10.37,2013-02-06 19:59:00,
2013-02-06 15:04:00,39.9,27.9,30.03,West,270,9.2,9.2,62,0.00,CLR,CLR,0.00,WeatherDisplay:10.37,2013-02-06 20:04:00,
2013-02-06 15:09:00,39.9,27.9,30.03,SSW,202,3.5,3.5,62,0.00,CLR,CLR,0.00,WeatherDisplay:10.37,2013-02-06 20:09:00,
2013-02-06 15:15:00,39.9,27.5,30.03,WSW,248,4.6,4.6,61,0.00,CLR,CLR,0.00,WeatherDisplay:10.37,2013-02-06 20:15:00,
2013-02-06 15:20:00,39.9,27.9,30.03,WSW,248,5.8,5.8,62,0.00,CLR,CLR,0.00,WeatherDisplay:10.37,2013-02-06 20:20:00,
2013-02-06 15:25:00,39.9,27.9,30.03,SSW,202,4.6,4.6,62,0.00,CLR,CLR,0.00,WeatherDisplay:10.37,2013-02-06 20:25:00,
2013-02-06 15:30:00,39.9,27.9,30.04,SW,225,4.6,4.6,62,0.00,CLR,CLR,0.00,WeatherDisplay:10.37,2013-02-06 20:30:00,
2013-02-06 15:35:00,40.1,28.1,30.04,South,180,2.3,0.0,62,0.00,CLR,CLR,0.00,WeatherDisplay:10.37,2013-02-06 20:35:00,
2013-02-06 15:41:00,39.9,27.5,30.04,WNW,292,6.9,6.9,61,0.00,CLR,CLR,0.00,WeatherDisplay:10.37,2013-02-06 20:41:00,
2013-02-06 15:46:00,39.9,27.5,30.04,SW,225,4.6,4.6,61,0.00,CLR,CLR,0.00,WeatherDisplay:10.37,2013-02-06 20:46:00,
2013-02-06 15:51:00,39.7,27.4,30.04,NW,315,4.6,4.6,61,0.00,CLR,CLR,0.00,WeatherDisplay:10.37,2013-02-06 20:51:00,
2013-02-06 15:56:00,39.6,27.2,30.04,West,270,3.5,3.5,61,0.00,CLR,CLR,0.00,WeatherDisplay:10.37,2013-02-06 20:56:00,
2013-02-06 16:01:00,39.6,27.2,30.04,WSW,248,3.5,4.0,61,0.00,CLR,CLR,0.00,WeatherDisplay:10.37,2013-02-06 21:01:00,
2013-02-06 16:07:00,39.4,27.0,30.05,WSW,248,3.5,3.5,61,0.00,CLR,CLR,0.00,WeatherDisplay:10.37,2013-02-06 21:07:00,
2013-02-06 16:12:00,39.4,27.0,30.05,SW,225,4.6,4.6,61,0.00,CLR,CLR,0.00,WeatherDisplay:10.37,2013-02-06 21:12:00,
2013-02-06 16:17:00,39.4,27.0,30.05,WNW,292,3.5,3.5,61,0.00,CLR,CLR,0.00,WeatherDisplay:10.37,2013-02-06 21:17:00,
2013-02-06 16:22:00,39.0,27.1,30.06,SW,225,8.1,8.1,62,0.00,CLR,CLR,0.00,WeatherDisplay:10.37,2013-02-06 21:22:00,
2013-02-06 16:28:00,39.0,26.7,30.06,SSW,202,5.8,5.8,61,0.00,CLR,CLR,0.00,WeatherDisplay:10.37,2013-02-06 21:28:00,
2013-02-06 16:33:00,38.8,26.9,30.06,WNW,292,2.3,2.3,62,0.00,CLR,CLR,0.00,WeatherDisplay:10.37,2013-02-06 21:33:00,
2013-02-06 16:38:00,38.8,26.9,30.06,SW,225,7.4,7.4,62,0.00,CLR,CLR,0.00,WeatherDisplay:10.37,2013-02-06 21:38:00,
2013-02-06 16:44:00,38.8,26.9,30.06,West,270,4.6,4.6,62,0.00,CLR,CLR,0.00,WeatherDisplay:10.37,2013-02-06 21:44:00,
2013-02-06 16:49:00,38.5,26.6,30.06,WSW,248,3.5,3.5,62,0.00,CLR,CLR,0.00,WeatherDisplay:10.37,2013-02-06 21:49:00,
2013-02-06 16:54:00,38.5,26.6,30.06,SW,225,2.3,2.3,62,0.00,CLR,CLR,0.00,WeatherDisplay:10.37,2013-02-06 21:54:00,
2013-02-06 16:59:00,38.3,26.4,30.06,NW,315,1.2,1.2,62,0.00,CLR,CLR,0.00,WeatherDisplay:10.37,2013-02-06 21:59:00,
2013-02-06 17:04:00,37.9,26.1,30.07,SW,225,4.6,4.6,62,0.00,CLR,CLR,0.00,WeatherDisplay:10.37,2013-02-06 22:04:00,
2013-02-06 17:10:00,37.8,25.9,30.07,West,270,0.0,0.0,62,0.00,CLR,CLR,0.00,WeatherDisplay:10.37,2013-02-06 22:10:00,
2013-02-06 17:15:00,37.6,25.7,30.07,WSW,248,4.6,4.6,62,0.00,CLR,CLR,0.00,WeatherDisplay:10.37,2013-02-06 22:15:00,
2013-02-06 17:20:00,37.2,25.8,30.07,South,180,3.5,3.5,63,0.00,CLR,CLR,0.00,WeatherDisplay:10.37,2013-02-06 22:20:00,
2013-02-06 17:25:00,37.0,25.6,30.07,WSW,248,3.5,3.5,63,0.00,CLR,CLR,0.00,WeatherDisplay:10.37,2013-02-06 22:25:00,
2013-02-06 17:30:00,36.7,25.6,30.07,WSW,248,0.0,0.0,64,0.00,CLR,CLR,0.00,WeatherDisplay:10.37,2013-02-06 22:30:00,
2013-02-06 17:36:00,36.3,25.3,30.08,NW,315,3.5,3.5,64,0.00,CLR,CLR,0.00,WeatherDisplay:10.37,2013-02-06 22:36:00,
2013-02-06 17:41:00,36.1,25.1,30.08,WSW,248,1.3,1.3,64,0.00,CLR,CLR,0.00,WeatherDisplay:10.37,2013-02-06 22:41:00,
2013-02-06 17:46:00,36.0,25.0,30.08,WSW,248,4.6,0.0,64,0.00,CLR,CLR,0.00,WeatherDisplay:10.37,2013-02-06 22:46:00,
2013-02-06 17:51:00,35.8,24.8,30.08,South,180,4.6,4.6,64,0.00,CLR,CLR,0.00,WeatherDisplay:10.37,2013-02-06 22:51:00,
2013-02-06 17:56:00,35.4,24.8,30.08,SSW,202,1.2,0.0,65,0.00,CLR,CLR,0.00,WeatherDisplay:10.37,2013-02-06 22:56:00,
2013-02-06 18:01:00,35.2,24.6,30.08,West,270,0.0,0.0,65,0.00,CLR,CLR,0.00,WeatherDisplay:10.37,2013-02-06 23:01:00,
2013-02-06 18:07:00,35.1,24.5,30.08,South,180,0.0,0.0,65,0.00,CLR,CLR,0.00,WeatherDisplay:10.37,2013-02-06 23:07:00,
2013-02-06 18:12:00,34.9,24.3,30.08,West,270,0.0,0.0,65,0.00,CLR,CLR,0.00,WeatherDisplay:10.37,2013-02-06 23:12:00,
2013-02-06 18:17:00,34.9,24.3,30.08,NNW,338,0.0,0.0,65,0.00,CLR,CLR,0.00,WeatherDisplay:10.37,2013-02-06 23:17:00,
2013-02-06 18:22:00,34.9,24.3,30.08,ESE,112,0.0,0.0,65,0.00,CLR,CLR,0.00,WeatherDisplay:10.37,2013-02-06 23:22:00,
2013-02-06 18:27:00,34.3,23.8,30.09,ESE,112,0.0,0.0,65,0.00,CLR,CLR,0.00,WeatherDisplay:10.37,2013-02-06 23:27:00,
2013-02-06 18:32:00,34.3,24.2,30.09,SE,135,0.0,0.0,66,0.00,CLR,CLR,0.00,WeatherDisplay:10.37,2013-02-06 23:32:00,
2013-02-06 18:38:00,34.3,24.2,30.09,West,270,5.8,5.8,66,0.00,CLR,CLR,0.00,WeatherDisplay:10.37,2013-02-06 23:38:00,
2013-02-06 18:43:00,33.8,23.6,30.09,SW,225,2.0,2.0,66,0.00,CLR,CLR,0.00,WeatherDisplay:10.37,2013-02-06 23:43:00,
2013-02-06 18:48:00,33.6,23.5,30.09,West,270,0.0,0.0,66,0.00,CLR,CLR,0.00,WeatherDisplay:10.37,2013-02-06 23:48:00,
2013-02-06 18:53:00,33.4,23.3,30.09,West,270,0.0,0.0,66,0.00,CLR,CLR,0.00,WeatherDisplay:10.37,2013-02-06 23:53:00,
2013-02-06 18:58:00,33.3,23.1,30.09,West,270,0.0,0.0,66,0.00,CLR,CLR,0.00,WeatherDisplay:10.37,2013-02-06 23:58:00,
2013-02-06 19:03:00,33.1,22.9,30.09,NW,315,0.0,0.0,66,0.00,CLR,CLR,0.00,WeatherDisplay:10.37,2013-02-07 00:03:00,
2013-02-06 19:08:00,32.9,22.8,30.10,North,0,0.0,0.0,66,0.00,CLR,CLR,0.00,WeatherDisplay:10.37,2013-02-07 00:08:00,
2013-02-06 19:13:00,32.9,22.8,30.10,East,90,0.0,0.0,66,0.00,CLR,CLR,0.00,WeatherDisplay:10.37,2013-02-07 00:13:00,
2013-02-06 19:19:00,32.7,23.0,30.11,East,90,0.0,0.0,67,0.00,CLR,CLR,0.00,WeatherDisplay:10.37,2013-02-07 00:19:00,
2013-02-06 19:24:00,32.7,23.3,30.11,SSE,158,0.0,0.0,68,0.00,CLR,CLR,0.00,WeatherDisplay:10.37,2013-02-07 00:24:00,
2013-02-06 19:29:00,32.5,23.5,30.11,SSE,158,0.0,0.0,69,0.00,CLR,CLR,0.00,WeatherDisplay:10.37,2013-02-07 00:29:00,
2013-02-06 19:34:00,32.2,23.1,30.11,ESE,112,0.0,0.0,69,0.00,CLR,CLR,0.00,WeatherDisplay:10.37,2013-02-07 00:34:00,
2013-02-06 19:39:00,31.8,23.1,30.12,SSE,158,0.0,0.0,70,0.00,CLR,CLR,0.00,WeatherDisplay:10.37,2013-02-07 00:39:00,
2013-02-06 19:45:00,31.6,23.3,30.12,South,180,0.0,0.0,71,0.00,CLR,CLR,0.00,WeatherDisplay:10.37,2013-02-07 00:45:00,
2013-02-06 19:50:00,31.5,23.1,30.12,South,180,0.0,0.0,71,0.00,CLR,CLR,0.00,WeatherDisplay:10.37,2013-02-07 00:50:00,
2013-02-06 19:55:00,30.9,22.6,30.12,South,180,0.0,0.0,71,0.00,CLR,CLR,0.00,WeatherDisplay:10.37,2013-02-07 00:55:00,
2013-02-06 20:00:00,30.6,22.6,30.12,South,180,0.0,0.0,72,0.00,CLR,CLR,0.00,WeatherDisplay:10.37,2013-02-07 01:00:00,
2013-02-06 20:05:00,30.4,22.4,30.12,South,180,0.0,0.0,72,0.00,CLR,CLR,0.00,WeatherDisplay:10.37,2013-02-07 01:05:00,
2013-02-06 20:10:00,30.0,22.4,30.12,South,180,0.0,0.0,73,0.00,CLR,CLR,0.00,WeatherDisplay:10.37,2013-02-07 01:10:00,
2013-02-06 20:16:00,29.8,21.9,30.13,ENE,68,0.0,0.0,72,0.00,CLR,CLR,0.00,WeatherDisplay:10.37,2013-02-07 01:16:00,
2013-02-06 20:21:00,29.5,21.6,30.12,SSW,202,0.0,0.0,72,0.00,CLR,CLR,0.00,WeatherDisplay:10.37,2013-02-07 01:21:00,
2013-02-06 20:26:00,29.3,21.4,30.12,SSW,202,0.0,0.0,72,0.00,CLR,CLR,0.00,WeatherDisplay:10.37,2013-02-07 01:26:00,
2013-02-06 20:31:00,29.1,21.2,30.12,SSW,202,0.0,0.0,72,0.00,CLR,CLR,0.00,WeatherDisplay:10.37,2013-02-07 01:31:00,
2013-02-06 20:36:00,29.1,21.2,30.12,West,270,0.0,0.0,72,0.00,CLR,CLR,0.00,WeatherDisplay:10.37,2013-02-07 01:36:00,
2013-02-06 20:41:00,29.1,21.2,30.13,ESE,112,0.0,0.0,72,0.00,CLR,CLR,0.00,WeatherDisplay:10.37,2013-02-07 01:41:00,
2013-02-06 20:47:00,29.3,21.4,30.13,NE,45,0.0,0.0,72,0.00,CLR,CLR,0.00,WeatherDisplay:10.37,2013-02-07 01:47:00,
2013-02-06 20:52:00,29.1,21.5,30.13,WSW,248,0.0,0.0,73,0.00,CLR,CLR,0.00,WeatherDisplay:10.37,2013-02-07 01:52:00,
2013-02-06 20:57:00,28.9,21.4,30.13,WSW,248,0.0,0.0,73,0.00,CLR,CLR,0.00,WeatherDisplay:10.37,2013-02-07 01:57:00,
2013-02-06 21:02:00,28.6,21.0,30.13,WSW,248,0.0,0.0,73,0.00,CLR,CLR,0.00,WeatherDisplay:10.37,2013-02-07 02:02:00,
2013-02-06 21:08:00,28.2,21.0,30.13,WSW,248,0.0,0.0,74,0.00,CLR,CLR,0.00,WeatherDisplay:10.37,2013-02-07 02:08:00,
2013-02-06 21:13:00,28.0,20.8,30.13,WSW,248,0.0,0.0,74,0.00,CLR,CLR,0.00,WeatherDisplay:10.37,2013-02-07 02:13:00,
2013-02-06 21:18:00,27.7,20.8,30.14,SSE,158,0.0,0.0,75,0.00,CLR,CLR,0.00,WeatherDisplay:10.37,2013-02-07 02:18:00,
2013-02-06 21:23:00,27.7,21.1,30.14,South,180,0.0,0.0,76,0.00,CLR,CLR,0.00,WeatherDisplay:10.37,2013-02-07 02:23:00,
2013-02-06 21:28:00,27.7,21.4,30.14,SSE,158,0.0,0.0,77,0.00,CLR,CLR,0.00,WeatherDisplay:10.37,2013-02-07 02:28:00,
2013-02-06 21:34:00,27.7,21.4,30.14,SSE,158,0.0,0.0,77,0.00,CLR,CLR,0.00,WeatherDisplay:10.37,2013-02-07 02:34:00,
2013-02-06 21:39:00,27.3,21.1,30.13,SSE,158,0.0,0.0,77,0.00,CLR,CLR,0.00,WeatherDisplay:10.37,2013-02-07 02:39:00,
2013-02-06 21:44:00,27.1,20.9,30.13,SSE,158,0.0,0.0,77,0.00,CLR,CLR,0.00,WeatherDisplay:10.37,2013-02-07 02:44:00,
2013-02-06 21:49:00,27.0,20.7,30.13,SSW,202,0.0,0.0,77,0.00,CLR,CLR,0.00,WeatherDisplay:10.37,2013-02-07 02:49:00,
2013-02-06 21:54:00,26.8,20.5,30.14,SSW,202,0.0,0.0,77,0.00,CLR,CLR,0.00,WeatherDisplay:10.37,2013-02-07 02:54:00,
2013-02-06 22:00:00,26.8,20.5,30.14,SE,135,0.0,0.0,77,0.00,CLR,CLR,0.00,WeatherDisplay:10.37,2013-02-07 03:00:00,
2013-02-06 22:05:00,26.8,20.8,30.14,SE,135,1.2,1.2,78,0.00,CLR,CLR,0.00,WeatherDisplay:10.37,2013-02-07 03:05:00,
2013-02-06 22:10:00,26.8,20.8,30.14,SE,135,0.0,0.0,78,0.00,CLR,CLR,0.00,WeatherDisplay:10.37,2013-02-07 03:10:00,
2013-02-06 22:15:00,26.8,20.8,30.14,SE,135,0.0,0.0,78,0.00,CLR,CLR,0.00,WeatherDisplay:10.37,2013-02-07 03:15:00,
2013-02-06 22:20:00,26.4,20.5,30.14,SSE,158,0.0,0.0,78,0.00,CLR,CLR,0.00,WeatherDisplay:10.37,2013-02-07 03:20:00,
2013-02-06 22:25:00,26.4,20.5,30.15,ENE,68,0.0,0.0,78,0.00,CLR,CLR,0.00,WeatherDisplay:10.37,2013-02-07 03:25:00,
2013-02-06 22:30:00,26.2,20.3,30.14,SE,135,0.0,0.0,78,0.00,CLR,CLR,0.00,WeatherDisplay:10.37,2013-02-07 03:30:00,
2013-02-06 22:36:00,26.2,20.3,30.14,SE,135,0.0,0.0,78,0.00,CLR,CLR,0.00,WeatherDisplay:10.37,2013-02-07 03:36:00,
2013-02-06 22:41:00,25.9,20.0,30.14,South,180,0.0,0.0,78,0.00,CLR,CLR,0.00,WeatherDisplay:10.37,2013-02-07 03:41:00,
2013-02-06 22:46:00,25.7,19.8,30.14,South,180,0.0,0.0,78,0.00,CLR,CLR,0.00,WeatherDisplay:10.37,2013-02-07 03:46:00,
2013-02-06 22:51:00,25.5,19.6,30.14,South,180,0.0,0.0,78,0.00,CLR,CLR,0.00,WeatherDisplay:10.37,2013-02-07 03:51:00,
2013-02-06 22:56:00,25.5,19.6,30.14,NNE,22,0.0,0.0,78,0.00,CLR,CLR,0.00,WeatherDisplay:10.37,2013-02-07 03:56:00,
2013-02-06 23:02:00,25.3,19.4,30.14,NNE,22,0.0,0.0,78,0.00,CLR,CLR,0.00,WeatherDisplay:10.37,2013-02-07 04:02:00,
2013-02-06 23:07:00,25.2,19.3,30.14,NNE,22,0.0,0.0,78,0.00,CLR,CLR,0.00,WeatherDisplay:10.37,2013-02-07 04:07:00,
2013-02-06 23:12:00,25.0,19.1,30.14,NNE,22,0.0,0.0,78,0.00,CLR,CLR,0.00,WeatherDisplay:10.37,2013-02-07 04:12:00,
2013-02-06 23:17:00,24.6,18.7,30.14,NNE,22,0.0,0.0,78,0.00,CLR,CLR,0.00,WeatherDisplay:10.37,2013-02-07 04:17:00,
2013-02-06 23:22:00,24.6,18.7,30.13,NNE,22,0.0,0.0,78,0.00,CLR,CLR,0.00,WeatherDisplay:10.37,2013-02-07 04:22:00,
2013-02-06 23:28:00,24.4,18.9,30.13,NNE,22,0.0,0.0,79,0.00,CLR,CLR,0.00,WeatherDisplay:10.37,2013-02-07 04:28:00,
2013-02-06 23:33:00,24.1,18.5,30.13,NNE,22,0.0,0.0,79,0.00,CLR,CLR,0.00,WeatherDisplay:10.37,2013-02-07 04:33:00,
2013-02-06 23:38:00,23.9,18.3,30.13,NNE,22,0.0,0.0,79,0.00,CLR,CLR,0.00,WeatherDisplay:10.37,2013-02-07 04:38:00,
2013-02-06 23:43:00,23.7,18.2,30.13,ESE,112,0.0,0.0,79,0.00,CLR,CLR,0.00,WeatherDisplay:10.37,2013-02-07 04:43:00,
2013-02-06 23:48:00,23.9,18.3,30.13,ESE,112,0.0,0.0,79,0.00,CLR,CLR,0.00,WeatherDisplay:10.37,2013-02-07 04:48:00,
2013-02-06 23:53:00,23.7,18.5,30.13,ESE,112,0.0,0.0,80,0.00,CLR,CLR,0.00,WeatherDisplay:10.37,2013-02-07 04:53:00,
2013-02-06 23:58:00,23.7,18.5,30.12,ESE,112,0.0,0.0,80,0.00,CLR,CLR,0.00,WeatherDisplay:10.37,2013-02-07 04:58:00,